Time;durP1;ratioP1;P1;durP2;ratioP2;P2;SDS_P1;SDS_P2;PMS_P1;PMS_P2;Temp;Humidity;BMP_temperature;BMP_pressure;BME280_temperature;BME280_humidity;BME280_pressure;Samples;Min_cycle;Max_cycle;Signal;HPM_P1;HPM_P2
2022/03/08 00:00:57;;;;;;;18.00;12.55;;;1.80;89.80;;;;;;5033736;28;20038;-49
2022/03/08 00:03:24;;;;;;;16.38;12.38;;;1.80;90.00;;;;;;5036459;28;20095;-44
2022/03/08 00:05:51;;;;;;;17.33;13.25;;;1.70;90.10;;;;;;5032252;28;20047;-49
2022/03/08 00:08:17;;;;;;;23.10;13.18;;;1.70;89.90;;;;;;5033944;28;20055;-47
2022/03/08 22:00:15;;;;;;;57.78;37.08;;;6.50;91.10;;;;;;5065887;28;20384;-50
2022/03/08 22:02:42;;;;;;;56.72;37.85;;;6.40;91.40;;;;;;5033298;28;20084;-49
2022/03/08 22:05:09;;;;;;;56.17;38.85;;;6.40;91.40;;;;;;5044907;28;20041;-51
2022/03/08 22:07:36;;;;;;;49.97;36.35;;;6.50;91.20;;;;;;5040727;28;20041;-47
2022/03/08 22:10:03;;;;;;;50.50;36.28;;;6.60;91.10;;;;;;5049167;28;20051;-48
2022/03/08 22:12:29;;;;;;;50.72;35.55;;;6.70;91.00;;;;;;5048995;28;20041;-45
2022/03/08 22:14:56;;;;;;;51.90;35.80;;;6.70;90.90;;;;;;5048986;28;20052;-51
2022/03/08 22:17:28;;;;;;;48.53;35.05;;;6.80;90.80;;;;;;5048315;28;20155;-44
2022/03/08 22:19:55;;;;;;;47.45;35.15;;;6.80;90.90;;;;;;5048955;28;20507;-45
2022/03/08 22:22:21;;;;;;;50.20;35.50;;;6.90;90.80;;;;;;5042296;28;20073;-46
2022/03/08 22:24:50;;;;;;;52.13;34.83;;;7.00;90.70;;;;;;5028647;28;20060;-43
2022/03/08 22:27:17;;;;;;;49.00;34.65;;;7.00;90.70;;;;;;5029822;28;20046;-50
2022/03/08 22:29:45;;;;;;;47.17;34.88;;;7.10;90.60;;;;;;5028282;28;20048;-45
2022/03/08 22:32:12;;;;;;;47.08;35.30;;;7.20;90.50;;;;;;5029709;28;20501;-47
2022/03/08 22:34:38;;;;;;;44.20;32.95;;;7.20;90.40;;;;;;5034398;28;20038;-44
2022/03/08 22:37:05;;;;;;;47.40;33.80;;;7.30;90.40;;;;;;5048942;28;20037;-49
2022/03/08 22:39:32;;;;;;;42.72;31.98;;;7.20;90.50;;;;;;5048582;28;20451;-55
2022/03/08 22:41:59;;;;;;;42.95;32.17;;;7.20;90.50;;;;;;5042848;28;20040;-47
2022/03/08 22:44:25;;;;;;;42.05;31.27;;;7.30;90.70;;;;;;5028141;28;20052;-48
2022/03/08 22:46:52;;;;;;;42.88;32.35;;;7.30;90.80;;;;;;5033374;28;20092;-53
2022/03/08 22:49:19;;;;;;;41.25;31.50;;;7.30;90.80;;;;;;5047239;28;20071;-49
2022/03/08 22:51:49;;;;;;;45.13;33.05;;;7.30;90.80;;;;;;5044692;28;20129;-50
2022/03/08 22:54:16;;;;;;;45.92;32.10;;;7.30;90.80;;;;;;5039944;28;20091;-48
2022/03/08 22:56:42;;;;;;;44.97;32.92;;;7.40;90.80;;;;;;5037759;28;20045;-53
2022/03/08 22:59:29;;;;;;;43.63;31.85;;;7.40;90.80;;;;;;5043473;28;20404;-51
2022/03/08 23:01:56;;;;;;;44.80;32.70;;;7.30;90.90;;;;;;5048426;28;20041;-49
2022/03/08 23:04:24;;;;;;;45.90;32.38;;;7.30;90.90;;;;;;5028811;28;20497;-45
2022/03/08 23:06:51;;;;;;;44.20;32.40;;;7.30;91.10;;;;;;5037544;28;20489;-48
2022/03/08 23:09:18;;;;;;;44.63;32.47;;;7.30;91.10;;;;;;5028645;28;20492;-46
2022/03/08 23:11:45;;;;;;;43.03;31.90;;;7.30;91.30;;;;;;5019491;28;20123;-46
2022/03/08 23:14:12;;;;;;;38.97;30.58;;;7.30;91.40;;;;;;5033244;28;20048;-55
2022/03/08 23:16:38;;;;;;;48.17;32.95;;;7.30;91.40;;;;;;5017896;28;20487;-54
2022/03/08 23:19:06;;;;;;;43.17;31.65;;;7.30;91.50;;;;;;5028257;28;20512;-50
2022/03/08 23:21:32;;;;;;;42.55;31.60;;;7.30;91.50;;;;;;5026113;28;20041;-50
2022/03/08 23:23:59;;;;;;;44.50;33.17;;;7.30;91.70;;;;;;5025676;28;20468;-51
2022/03/08 23:26:26;;;;;;;40.75;30.58;;;7.30;91.60;;;;;;5029817;28;20040;-54
2022/03/08 23:28:53;;;;;;;44.20;32.03;;;7.30;91.80;;;;;;5024940;28;20037;-53
2022/03/08 23:31:19;;;;;;;40.78;31.42;;;7.30;91.80;;;;;;5016079;28;20046;-52
